sensor_id;sensor_type;location;lat;lon;timestamp;temperature;humidity
13598;DHT22;38563;54.258;12.574;2023-03-31T00:02:24;9.50;99.90
13598;DHT22;38563;54.258;12.574;2023-03-31T00:04:54;9.50;99.90
13598;DHT22;38563;54.258;12.574;2023-03-31T00:07:25;9.40;99.90
13598;DHT22;38563;54.258;12.574;2023-03-31T00:09:52;9.40;99.90
13598;DHT22;38563;54.258;12.574;2023-03-31T00:12:22;9.40;99.90
13598;DHT22;38563;54.258;12.574;2023-03-31T00:14:48;9.30;99.90
13598;DHT22;38563;54.258;12.574;2023-03-31T00:17:15;9.30;99.90
13598;DHT22;38563;54.258;12.574;2023-03-31T00:19:42;9.30;99.90
13598;DHT22;38563;54.258;12.574;2023-03-31T00:22:09;9.30;99.90
13598;DHT22;38563;54.258;12.574;2023-03-31T00:24:37;9.30;99.90
13598;DHT22;38563;54.258;12.574;2023-03-31T00:27:04;9.30;99.90
13598;DHT22;38563;54.258;12.574;2023-03-31T00:29:31;9.40;99.90
13598;DHT22;38563;54.258;12.574;2023-03-31T00:32:00;9.30;99.90
13598;DHT22;38563;54.258;12.574;2023-03-31T00:34:27;9.40;99.90
13598;DHT22;38563;54.258;12.574;2023-03-31T00:36:54;9.40;99.90
13598;DHT22;38563;54.258;12.574;2023-03-31T00:39:23;9.30;99.90
13598;DHT22;38563;54.258;12.574;2023-03-31T00:41:51;9.30;99.90
13598;DHT22;38563;54.258;12.574;2023-03-31T00:44:20;9.30;99.90
13598;DHT22;38563;54.258;12.574;2023-03-31T00:46:51;9.30;99.90
13598;DHT22;38563;54.258;12.574;2023-03-31T00:49:23;9.30;99.90
13598;DHT22;38563;54.258;12.574;2023-03-31T00:51:54;9.30;99.90
13598;DHT22;38563;54.258;12.574;2023-03-31T00:54:24;9.40;99.90
13598;DHT22;38563;54.258;12.574;2023-03-31T00:56:54;9.40;99.90
13598;DHT22;38563;54.258;12.574;2023-03-31T00:59:29;9.40;99.90
13598;DHT22;38563;54.258;12.574;2023-03-31T01:01:57;9.40;99.90
13598;DHT22;38563;54.258;12.574;2023-03-31T01:04:29;9.40;99.90
13598;DHT22;38563;54.258;12.574;2023-03-31T01:07:01;9.40;99.90
13598;DHT22;38563;54.258;12.574;2023-03-31T01:09:29;9.40;99.90
13598;DHT22;38563;54.258;12.574;2023-03-31T01:12:02;9.40;99.90
13598;DHT22;38563;54.258;12.574;2023-03-31T01:14:29;9.40;99.90
13598;DHT22;38563;54.258;12.574;2023-03-31T01:16:56;9.40;99.90
13598;DHT22;38563;54.258;12.574;2023-03-31T01:19:28;9.40;99.90
13598;DHT22;38563;54.258;12.574;2023-03-31T01:25:36;9.40;99.90
13598;DHT22;38563;54.258;12.574;2023-03-31T01:28:27;9.30;99.90
13598;DHT22;38563;54.258;12.574;2023-03-31T01:31:17;9.30;99.90
13598;DHT22;38563;54.258;12.574;2023-03-31T01:34:12;9.30;99.90
13598;DHT22;38563;54.258;12.574;2023-03-31T01:37:27;9.30;99.90
13598;DHT22;38563;54.258;12.574;2023-03-31T01:40:22;9.40;99.90
13598;DHT22;38563;54.258;12.574;2023-03-31T01:42:54;9.40;99.90
13598;DHT22;38563;54.258;12.574;2023-03-31T01:45:30;9.40;99.90
13598;DHT22;38563;54.258;12.574;2023-03-31T01:48:03;9.50;99.90
13598;DHT22;38563;54.258;12.574;2023-03-31T01:50:35;9.60;99.90
13598;DHT22;38563;54.258;12.574;2023-03-31T01:53:08;9.60;99.90
13598;DHT22;38563;54.258;12.574;2023-03-31T01:55:41;9.70;99.90
13598;DHT22;38563;54.258;12.574;2023-03-31T01:58:12;9.80;99.90
13598;DHT22;38563;54.258;12.574;2023-03-31T02:00:43;9.80;99.90
13598;DHT22;38563;54.258;12.574;2023-03-31T02:03:20;9.80;99.90
13598;DHT22;38563;54.258;12.574;2023-03-31T02:05:50;9.90;99.90
13598;DHT22;38563;54.258;12.574;2023-03-31T02:08:21;9.90;99.90
13598;DHT22;38563;54.258;12.574;2023-03-31T02:10:52;9.90;99.90
13598;DHT22;38563;54.258;12.574;2023-03-31T02:13:21;9.80;99.90
13598;DHT22;38563;54.258;12.574;2023-03-31T02:15:51;9.80;99.90
13598;DHT22;38563;54.258;12.574;2023-03-31T02:18:23;9.70;99.90
13598;DHT22;38563;54.258;12.574;2023-03-31T02:20:52;9.70;99.90
13598;DHT22;38563;54.258;12.574;2023-03-31T02:23:24;9.70;99.90
13598;DHT22;38563;54.258;12.574;2023-03-31T02:26:00;9.70;99.90
13598;DHT22;38563;54.258;12.574;2023-03-31T02:28:27;9.70;99.90
13598;DHT22;38563;54.258;12.574;2023-03-31T02:31:06;9.70;99.90
13598;DHT22;38563;54.258;12.574;2023-03-31T02:33:35;9.80;99.90
13598;DHT22;38563;54.258;12.574;2023-03-31T02:36:04;9.80;99.90
13598;DHT22;38563;54.258;12.574;2023-03-31T02:38:35;9.80;99.90
13598;DHT22;38563;54.258;12.574;2023-03-31T02:41:05;9.90;99.90
13598;DHT22;38563;54.258;12.574;2023-03-31T02:43:32;9.80;99.90
13598;DHT22;38563;54.258;12.574;2023-03-31T02:45:59;9.80;99.90
13598;DHT22;38563;54.258;12.574;2023-03-31T02:48:30;9.90;99.90
13598;DHT22;38563;54.258;12.574;2023-03-31T02:54:22;9.80;99.90
13598;DHT22;38563;54.258;12.574;2023-03-31T02:57:14;9.90;99.90
13598;DHT22;38563;54.258;12.574;2023-03-31T02:59:51;9.90;99.90
13598;DHT22;38563;54.258;12.574;2023-03-31T03:02:30;9.90;99.90
13598;DHT22;38563;54.258;12.574;2023-03-31T03:05:16;9.80;99.90
13598;DHT22;38563;54.258;12.574;2023-03-31T03:07:57;9.90;99.90
13598;DHT22;38563;54.258;12.574;2023-03-31T03:10:34;9.80;99.90
13598;DHT22;38563;54.258;12.574;2023-03-31T03:13:10;9.80;99.90
13598;DHT22;38563;54.258;12.574;2023-03-31T03:15:44;9.80;99.90
13598;DHT22;38563;54.258;12.574;2023-03-31T03:18:13;9.80;99.90
13598;DHT22;38563;54.258;12.574;2023-03-31T03:20:41;9.80;99.90
13598;DHT22;38563;54.258;12.574;2023-03-31T03:23:13;9.80;99.90
13598;DHT22;38563;54.258;12.574;2023-03-31T03:25:40;9.80;99.90
13598;DHT22;38563;54.258;12.574;2023-03-31T03:28:08;9.80;99.90
13598;DHT22;38563;54.258;12.574;2023-03-31T03:30:35;9.80;99.90
13598;DHT22;38563;54.258;12.574;2023-03-31T03:33:01;9.70;99.90
13598;DHT22;38563;54.258;12.574;2023-03-31T03:35:30;9.70;99.90
13598;DHT22;38563;54.258;12.574;2023-03-31T03:37:57;9.70;99.90
13598;DHT22;38563;54.258;12.574;2023-03-31T03:40:24;9.70;99.90
13598;DHT22;38563;54.258;12.574;2023-03-31T03:42:50;9.70;99.90
13598;DHT22;38563;54.258;12.574;2023-03-31T03:45:19;9.60;99.90
13598;DHT22;38563;54.258;12.574;2023-03-31T03:47:45;9.60;99.90
13598;DHT22;38563;54.258;12.574;2023-03-31T03:50:12;9.60;99.90
13598;DHT22;38563;54.258;12.574;2023-03-31T03:52:39;9.60;99.90
13598;DHT22;38563;54.258;12.574;2023-03-31T03:55:06;9.60;99.90
13598;DHT22;38563;54.258;12.574;2023-03-31T03:57:33;9.60;99.90
13598;DHT22;38563;54.258;12.574;2023-03-31T03:59:59;9.60;99.90
13598;DHT22;38563;54.258;12.574;2023-03-31T04:02:27;9.50;99.90
13598;DHT22;38563;54.258;12.574;2023-03-31T04:04:54;9.50;99.90
13598;DHT22;38563;54.258;12.574;2023-03-31T04:07:21;9.40;99.90
13598;DHT22;38563;54.258;12.574;2023-03-31T04:09:47;9.40;99.90
13598;DHT22;38563;54.258;12.574;2023-03-31T04:12:14;9.40;99.90
13598;DHT22;38563;54.258;12.574;2023-03-31T04:14:41;9.40;99.90
13598;DHT22;38563;54.258;12.574;2023-03-31T04:17:07;9.30;99.90
13598;DHT22;38563;54.258;12.574;2023-03-31T04:19:36;9.30;99.90
13598;DHT22;38563;54.258;12.574;2023-03-31T04:22:02;9.30;99.90
13598;DHT22;38563;54.258;12.574;2023-03-31T04:24:29;9.20;99.90
13598;DHT22;38563;54.258;12.574;2023-03-31T04:26:58;9.20;99.90
13598;DHT22;38563;54.258;12.574;2023-03-31T04:29:25;9.30;99.90
13598;DHT22;38563;54.258;12.574;2023-03-31T04:31:52;9.30;99.90
13598;DHT22;38563;54.258;12.574;2023-03-31T04:34:23;9.30;99.90
13598;DHT22;38563;54.258;12.574;2023-03-31T04:37:00;9.40;99.90
13598;DHT22;38563;54.258;12.574;2023-03-31T04:39:28;9.40;99.90
13598;DHT22;38563;54.258;12.574;2023-03-31T04:41:56;9.50;99.90
13598;DHT22;38563;54.258;12.574;2023-03-31T04:44:23;9.50;99.90
13598;DHT22;38563;54.258;12.574;2023-03-31T04:46:49;9.50;99.90
13598;DHT22;38563;54.258;12.574;2023-03-31T04:49:16;9.60;99.90
13598;DHT22;38563;54.258;12.574;2023-03-31T04:51:43;9.60;99.90
13598;DHT22;38563;54.258;12.574;2023-03-31T04:54:11;9.60;99.90
13598;DHT22;38563;54.258;12.574;2023-03-31T04:56:38;9.60;99.90
13598;DHT22;38563;54.258;12.574;2023-03-31T04:59:04;9.60;99.90
13598;DHT22;38563;54.258;12.574;2023-03-31T05:01:33;9.60;99.90
13598;DHT22;38563;54.258;12.574;2023-03-31T05:04:01;9.70;99.90
13598;DHT22;38563;54.258;12.574;2023-03-31T05:06:28;9.60;99.90
13598;DHT22;38563;54.258;12.574;2023-03-31T05:08:54;9.70;99.90
13598;DHT22;38563;54.258;12.574;2023-03-31T05:11:22;9.60;99.90
13598;DHT22;38563;54.258;12.574;2023-03-31T05:13:49;9.60;99.90
13598;DHT22;38563;54.258;12.574;2023-03-31T05:16:16;9.70;99.90
13598;DHT22;38563;54.258;12.574;2023-03-31T05:18:42;9.60;99.90
13598;DHT22;38563;54.258;12.574;2023-03-31T05:21:12;9.70;99.90
13598;DHT22;38563;54.258;12.574;2023-03-31T05:23:39;9.70;99.90
13598;DHT22;38563;54.258;12.574;2023-03-31T05:26:06;9.70;99.90
13598;DHT22;38563;54.258;12.574;2023-03-31T05:28:34;9.60;99.90
13598;DHT22;38563;54.258;12.574;2023-03-31T05:31:02;9.60;99.90
13598;DHT22;38563;54.258;12.574;2023-03-31T05:33:29;9.60;99.90
13598;DHT22;38563;54.258;12.574;2023-03-31T05:35:56;9.60;99.90
13598;DHT22;38563;54.258;12.574;2023-03-31T05:38:25;9.60;99.90
13598;DHT22;38563;54.258;12.574;2023-03-31T05:40:53;9.60;99.90
13598;DHT22;38563;54.258;12.574;2023-03-31T05:43:20;9.60;99.90
13598;DHT22;38563;54.258;12.574;2023-03-31T05:45:48;9.60;99.90
13598;DHT22;38563;54.258;12.574;2023-03-31T05:48:15;9.60;99.90
13598;DHT22;38563;54.258;12.574;2023-03-31T05:50:42;9.60;99.90
13598;DHT22;38563;54.258;12.574;2023-03-31T05:53:08;9.60;99.90
13598;DHT22;38563;54.258;12.574;2023-03-31T05:55:35;9.60;99.90
13598;DHT22;38563;54.258;12.574;2023-03-31T05:58:02;9.70;99.90
13598;DHT22;38563;54.258;12.574;2023-03-31T06:00:29;9.70;99.90
13598;DHT22;38563;54.258;12.574;2023-03-31T06:02:57;9.80;99.90
13598;DHT22;38563;54.258;12.574;2023-03-31T06:05:24;9.80;99.90
13598;DHT22;38563;54.258;12.574;2023-03-31T06:07:51;9.90;99.90
13598;DHT22;38563;54.258;12.574;2023-03-31T06:10:18;10.00;99.90
13598;DHT22;38563;54.258;12.574;2023-03-31T06:12:45;10.20;99.90
13598;DHT22;38563;54.258;12.574;2023-03-31T06:15:11;10.30;99.90
13598;DHT22;38563;54.258;12.574;2023-03-31T06:17:38;10.40;99.90
13598;DHT22;38563;54.258;12.574;2023-03-31T06:20:07;10.40;99.90
13598;DHT22;38563;54.258;12.574;2023-03-31T06:22:34;10.40;99.90
13598;DHT22;38563;54.258;12.574;2023-03-31T06:25:00;10.30;99.90
13598;DHT22;38563;54.258;12.574;2023-03-31T06:27:27;10.30;99.90
13598;DHT22;38563;54.258;12.574;2023-03-31T06:29:54;10.30;99.90
13598;DHT22;38563;54.258;12.574;2023-03-31T06:32:20;10.20;99.90
13598;DHT22;38563;54.258;12.574;2023-03-31T06:34:47;10.20;99.90
13598;DHT22;38563;54.258;12.574;2023-03-31T06:37:15;10.30;99.90
13598;DHT22;38563;54.258;12.574;2023-03-31T06:39:42;10.40;99.90
13598;DHT22;38563;54.258;12.574;2023-03-31T06:42:09;10.40;99.90
13598;DHT22;38563;54.258;12.574;2023-03-31T06:44:39;10.30;99.90
13598;DHT22;38563;54.258;12.574;2023-03-31T06:47:06;10.30;99.90
13598;DHT22;38563;54.258;12.574;2023-03-31T06:49:33;10.30;99.90
13598;DHT22;38563;54.258;12.574;2023-03-31T06:51:59;10.30;99.90
13598;DHT22;38563;54.258;12.574;2023-03-31T06:54:27;10.30;99.90
13598;DHT22;38563;54.258;12.574;2023-03-31T06:56:54;10.20;99.90
13598;DHT22;38563;54.258;12.574;2023-03-31T06:59:20;10.20;99.90
13598;DHT22;38563;54.258;12.574;2023-03-31T07:01:47;10.20;99.90
13598;DHT22;38563;54.258;12.574;2023-03-31T07:04:15;10.20;99.90
13598;DHT22;38563;54.258;12.574;2023-03-31T07:06:41;10.10;99.90
13598;DHT22;38563;54.258;12.574;2023-03-31T07:09:08;10.20;99.90
13598;DHT22;38563;54.258;12.574;2023-03-31T07:11:36;10.10;99.90
13598;DHT22;38563;54.258;12.574;2023-03-31T07:14:03;10.10;99.90
13598;DHT22;38563;54.258;12.574;2023-03-31T07:16:29;10.20;99.90
13598;DHT22;38563;54.258;12.574;2023-03-31T07:18:56;10.20;99.90
13598;DHT22;38563;54.258;12.574;2023-03-31T07:21:24;10.10;99.90
13598;DHT22;38563;54.258;12.574;2023-03-31T07:23:51;10.20;99.90
13598;DHT22;38563;54.258;12.574;2023-03-31T07:26:18;10.30;99.90
13598;DHT22;38563;54.258;12.574;2023-03-31T07:28:46;10.30;99.90
13598;DHT22;38563;54.258;12.574;2023-03-31T07:31:14;10.30;99.90
13598;DHT22;38563;54.258;12.574;2023-03-31T07:33:41;10.30;99.90
13598;DHT22;38563;54.258;12.574;2023-03-31T07:36:08;10.30;99.90
13598;DHT22;38563;54.258;12.574;2023-03-31T07:38:35;10.40;99.90
13598;DHT22;38563;54.258;12.574;2023-03-31T07:41:02;10.40;99.90
13598;DHT22;38563;54.258;12.574;2023-03-31T07:43:28;10.40;99.90
13598;DHT22;38563;54.258;12.574;2023-03-31T07:45:56;10.50;99.90
13598;DHT22;38563;54.258;12.574;2023-03-31T07:48:23;10.50;99.90
13598;DHT22;38563;54.258;12.574;2023-03-31T07:50:53;10.70;99.90
13598;DHT22;38563;54.258;12.574;2023-03-31T07:53:27;10.80;99.90
13598;DHT22;38563;54.258;12.574;2023-03-31T07:55:54;11.00;99.90
13598;DHT22;38563;54.258;12.574;2023-03-31T07:58:20;11.20;99.90
13598;DHT22;38563;54.258;12.574;2023-03-31T08:00:47;11.30;99.90
13598;DHT22;38563;54.258;12.574;2023-03-31T08:03:15;11.40;99.90
13598;DHT22;38563;54.258;12.574;2023-03-31T08:05:41;11.40;99.90
13598;DHT22;38563;54.258;12.574;2023-03-31T08:08:08;11.50;99.90
13598;DHT22;38563;54.258;12.574;2023-03-31T08:10:35;11.60;99.90
13598;DHT22;38563;54.258;12.574;2023-03-31T08:13:01;11.80;99.90
13598;DHT22;38563;54.258;12.574;2023-03-31T08:15:28;11.80;99.90
13598;DHT22;38563;54.258;12.574;2023-03-31T08:17:55;11.80;99.90
13598;DHT22;38563;54.258;12.574;2023-03-31T08:20:23;11.80;99.90
13598;DHT22;38563;54.258;12.574;2023-03-31T08:22:50;11.80;99.90
13598;DHT22;38563;54.258;12.574;2023-03-31T08:25:16;11.80;99.90
13598;DHT22;38563;54.258;12.574;2023-03-31T08:27:45;11.80;99.90
13598;DHT22;38563;54.258;12.574;2023-03-31T08:30:16;11.90;99.90
13598;DHT22;38563;54.258;12.574;2023-03-31T08:32:43;12.00;99.90
13598;DHT22;38563;54.258;12.574;2023-03-31T08:35:10;12.10;99.90
13598;DHT22;38563;54.258;12.574;2023-03-31T08:37:38;12.30;99.90
13598;DHT22;38563;54.258;12.574;2023-03-31T08:40:07;12.40;99.90
13598;DHT22;38563;54.258;12.574;2023-03-31T08:42:38;12.40;99.90
13598;DHT22;38563;54.258;12.574;2023-03-31T08:45:12;12.40;99.90
13598;DHT22;38563;54.258;12.574;2023-03-31T08:47:42;12.60;99.90
13598;DHT22;38563;54.258;12.574;2023-03-31T08:50:14;12.60;99.90
13598;DHT22;38563;54.258;12.574;2023-03-31T08:52:46;12.90;99.90
13598;DHT22;38563;54.258;12.574;2023-03-31T08:55:21;13.20;99.90
13598;DHT22;38563;54.258;12.574;2023-03-31T08:57:55;13.50;99.90
13598;DHT22;38563;54.258;12.574;2023-03-31T09:00:24;13.60;99.90
13598;DHT22;38563;54.258;12.574;2023-03-31T09:02:58;13.60;99.90
13598;DHT22;38563;54.258;12.574;2023-03-31T09:05:41;13.70;99.90
13598;DHT22;38563;54.258;12.574;2023-03-31T09:08:15;13.70;99.90
13598;DHT22;38563;54.258;12.574;2023-03-31T09:10:51;13.80;99.90
13598;DHT22;38563;54.258;12.574;2023-03-31T09:13:33;13.90;99.90
13598;DHT22;38563;54.258;12.574;2023-03-31T09:16:04;13.90;99.90
13598;DHT22;38563;54.258;12.574;2023-03-31T09:18:34;13.80;99.90
13598;DHT22;38563;54.258;12.574;2023-03-31T09:21:05;13.80;99.90
13598;DHT22;38563;54.258;12.574;2023-03-31T09:23:39;13.70;99.90
13598;DHT22;38563;54.258;12.574;2023-03-31T09:26:14;13.70;99.90
13598;DHT22;38563;54.258;12.574;2023-03-31T09:28:44;13.60;99.90
13598;DHT22;38563;54.258;12.574;2023-03-31T09:31:13;13.60;99.90
13598;DHT22;38563;54.258;12.574;2023-03-31T09:33:43;13.50;99.90
13598;DHT22;38563;54.258;12.574;2023-03-31T09:36:14;13.50;99.90
13598;DHT22;38563;54.258;12.574;2023-03-31T09:38:44;13.50;99.90
13598;DHT22;38563;54.258;12.574;2023-03-31T09:41:12;13.60;99.90
13598;DHT22;38563;54.258;12.574;2023-03-31T09:43:41;13.70;99.90
13598;DHT22;38563;54.258;12.574;2023-03-31T09:46:15;13.90;99.90
13598;DHT22;38563;54.258;12.574;2023-03-31T09:48:49;14.00;99.90
13598;DHT22;38563;54.258;12.574;2023-03-31T09:51:20;14.10;99.90
13598;DHT22;38563;54.258;12.574;2023-03-31T09:53:54;14.20;99.90
13598;DHT22;38563;54.258;12.574;2023-03-31T09:56:34;14.30;99.90
13598;DHT22;38563;54.258;12.574;2023-03-31T09:59:02;14.40;99.90
13598;DHT22;38563;54.258;12.574;2023-03-31T10:01:29;14.60;99.90
13598;DHT22;38563;54.258;12.574;2023-03-31T10:03:56;14.90;99.90
13598;DHT22;38563;54.258;12.574;2023-03-31T10:06:23;15.10;99.90
13598;DHT22;38563;54.258;12.574;2023-03-31T10:08:53;15.20;99.90
13598;DHT22;38563;54.258;12.574;2023-03-31T10:11:22;15.30;99.90
13598;DHT22;38563;54.258;12.574;2023-03-31T10:13:52;15.30;99.90
13598;DHT22;38563;54.258;12.574;2023-03-31T10:16:28;15.20;99.90
13598;DHT22;38563;54.258;12.574;2023-03-31T10:19:10;15.20;99.90
13598;DHT22;38563;54.258;12.574;2023-03-31T10:21:37;15.20;99.90
13598;DHT22;38563;54.258;12.574;2023-03-31T10:24:09;15.20;99.90
13598;DHT22;38563;54.258;12.574;2023-03-31T10:26:36;15.30;99.90
13598;DHT22;38563;54.258;12.574;2023-03-31T10:29:09;15.40;99.90
13598;DHT22;38563;54.258;12.574;2023-03-31T10:31:38;15.60;99.90
13598;DHT22;38563;54.258;12.574;2023-03-31T10:34:05;15.30;99.90
13598;DHT22;38563;54.258;12.574;2023-03-31T10:36:33;15.20;99.90
13598;DHT22;38563;54.258;12.574;2023-03-31T10:39:04;15.10;99.90
13598;DHT22;38563;54.258;12.574;2023-03-31T10:41:32;15.10;99.90
13598;DHT22;38563;54.258;12.574;2023-03-31T10:44:02;15.20;99.90
13598;DHT22;38563;54.258;12.574;2023-03-31T10:46:40;15.10;99.90
13598;DHT22;38563;54.258;12.574;2023-03-31T10:49:24;15.20;99.90
13598;DHT22;38563;54.258;12.574;2023-03-31T10:51:52;15.10;99.90
13598;DHT22;38563;54.258;12.574;2023-03-31T10:54:19;15.10;99.90
13598;DHT22;38563;54.258;12.574;2023-03-31T10:56:50;15.10;99.90
13598;DHT22;38563;54.258;12.574;2023-03-31T10:59:40;15.20;99.90
13598;DHT22;38563;54.258;12.574;2023-03-31T11:02:24;15.30;99.90
13598;DHT22;38563;54.258;12.574;2023-03-31T11:05:03;15.40;99.90
13598;DHT22;38563;54.258;12.574;2023-03-31T11:07:38;15.50;99.90
13598;DHT22;38563;54.258;12.574;2023-03-31T11:10:19;15.60;99.90
13598;DHT22;38563;54.258;12.574;2023-03-31T11:12:57;15.50;99.90
13598;DHT22;38563;54.258;12.574;2023-03-31T11:15:29;15.50;99.90
13598;DHT22;38563;54.258;12.574;2023-03-31T11:18:18;15.60;99.90
13598;DHT22;38563;54.258;12.574;2023-03-31T11:20:56;15.50;99.90
13598;DHT22;38563;54.258;12.574;2023-03-31T11:23:38;15.60;99.90
13598;DHT22;38563;54.258;12.574;2023-03-31T11:26:09;15.60;99.90
13598;DHT22;38563;54.258;12.574;2023-03-31T11:28:55;15.50;99.90
13598;DHT22;38563;54.258;12.574;2023-03-31T11:31:32;15.40;99.90
13598;DHT22;38563;54.258;12.574;2023-03-31T11:34:16;15.30;99.90
13598;DHT22;38563;54.258;12.574;2023-03-31T11:36:59;15.30;99.90
13598;DHT22;38563;54.258;12.574;2023-03-31T11:39:38;15.50;99.90
13598;DHT22;38563;54.258;12.574;2023-03-31T11:42:09;15.40;99.90
13598;DHT22;38563;54.258;12.574;2023-03-31T11:44:42;15.20;99.90
13598;DHT22;38563;54.258;12.574;2023-03-31T11:47:14;15.20;99.90
13598;DHT22;38563;54.258;12.574;2023-03-31T11:49:46;15.40;99.90
13598;DHT22;38563;54.258;12.574;2023-03-31T11:52:15;15.50;99.90
13598;DHT22;38563;54.258;12.574;2023-03-31T11:54:48;15.40;99.90
13598;DHT22;38563;54.258;12.574;2023-03-31T11:57:18;15.40;99.90
13598;DHT22;38563;54.258;12.574;2023-03-31T11:59:53;15.40;99.90
13598;DHT22;38563;54.258;12.574;2023-03-31T12:02:29;15.10;99.90
13598;DHT22;38563;54.258;12.574;2023-03-31T12:04:57;14.90;99.90
13598;DHT22;38563;54.258;12.574;2023-03-31T12:07:29;14.60;99.90
13598;DHT22;38563;54.258;12.574;2023-03-31T12:10:01;14.30;99.90
13598;DHT22;38563;54.258;12.574;2023-03-31T12:12:32;14.10;99.90
13598;DHT22;38563;54.258;12.574;2023-03-31T12:15:05;14.10;99.90
13598;DHT22;38563;54.258;12.574;2023-03-31T12:17:34;14.20;99.90
13598;DHT22;38563;54.258;12.574;2023-03-31T12:20:04;14.20;99.90
13598;DHT22;38563;54.258;12.574;2023-03-31T12:22:37;14.30;99.90
13598;DHT22;38563;54.258;12.574;2023-03-31T12:25:11;14.40;99.90
13598;DHT22;38563;54.258;12.574;2023-03-31T12:27:40;14.50;99.90
13598;DHT22;38563;54.258;12.574;2023-03-31T12:30:12;14.50;99.90
13598;DHT22;38563;54.258;12.574;2023-03-31T12:32:45;14.60;99.90
13598;DHT22;38563;54.258;12.574;2023-03-31T12:35:19;14.70;99.90
13598;DHT22;38563;54.258;12.574;2023-03-31T12:37:58;14.80;99.90
13598;DHT22;38563;54.258;12.574;2023-03-31T12:40:42;14.70;99.90
13598;DHT22;38563;54.258;12.574;2023-03-31T12:43:26;14.80;99.90
13598;DHT22;38563;54.258;12.574;2023-03-31T12:46:03;14.90;99.90
13598;DHT22;38563;54.258;12.574;2023-03-31T12:48:45;15.00;99.90
13598;DHT22;38563;54.258;12.574;2023-03-31T12:51:26;15.00;99.90
13598;DHT22;38563;54.258;12.574;2023-03-31T12:54:11;15.10;99.90
13598;DHT22;38563;54.258;12.574;2023-03-31T12:57:12;15.10;99.90
13598;DHT22;38563;54.258;12.574;2023-03-31T12:59:42;15.10;99.90
13598;DHT22;38563;54.258;12.574;2023-03-31T13:02:25;15.20;99.90
13598;DHT22;38563;54.258;12.574;2023-03-31T13:04:52;15.20;99.90
13598;DHT22;38563;54.258;12.574;2023-03-31T13:07:36;15.10;99.90
13598;DHT22;38563;54.258;12.574;2023-03-31T13:10:27;15.20;99.90
13598;DHT22;38563;54.258;12.574;2023-03-31T13:13:01;15.30;99.90
13598;DHT22;38563;54.258;12.574;2023-03-31T13:15:28;15.30;99.90
13598;DHT22;38563;54.258;12.574;2023-03-31T13:17:58;15.20;99.90
13598;DHT22;38563;54.258;12.574;2023-03-31T13:20:34;15.10;99.90
13598;DHT22;38563;54.258;12.574;2023-03-31T13:23:05;15.20;99.90
13598;DHT22;38563;54.258;12.574;2023-03-31T13:25:36;15.30;99.90
13598;DHT22;38563;54.258;12.574;2023-03-31T13:28:10;15.40;99.90
13598;DHT22;38563;54.258;12.574;2023-03-31T13:30:50;15.40;99.90
13598;DHT22;38563;54.258;12.574;2023-03-31T13:33:22;15.30;99.90
13598;DHT22;38563;54.258;12.574;2023-03-31T13:35:52;15.30;99.90
13598;DHT22;38563;54.258;12.574;2023-03-31T13:38:33;15.10;99.90
13598;DHT22;38563;54.258;12.574;2023-03-31T13:41:13;15.00;99.90
13598;DHT22;38563;54.258;12.574;2023-03-31T13:44:07;15.00;99.90
13598;DHT22;38563;54.258;12.574;2023-03-31T13:46:57;14.90;99.90
13598;DHT22;38563;54.258;12.574;2023-03-31T13:49:49;14.90;99.90
13598;DHT22;38563;54.258;12.574;2023-03-31T13:52:33;14.90;99.90
13598;DHT22;38563;54.258;12.574;2023-03-31T13:58:21;14.70;99.90
13598;DHT22;38563;54.258;12.574;2023-03-31T14:00:59;14.50;99.90
13598;DHT22;38563;54.258;12.574;2023-03-31T14:03:36;14.10;99.90
13598;DHT22;38563;54.258;12.574;2023-03-31T14:06:09;13.50;99.90
13598;DHT22;38563;54.258;12.574;2023-03-31T14:08:48;13.10;99.90
13598;DHT22;38563;54.258;12.574;2023-03-31T14:11:19;12.70;99.90
13598;DHT22;38563;54.258;12.574;2023-03-31T14:13:58;12.40;99.90
13598;DHT22;38563;54.258;12.574;2023-03-31T14:16:25;12.20;99.90
13598;DHT22;38563;54.258;12.574;2023-03-31T14:19:01;12.00;99.90
13598;DHT22;38563;54.258;12.574;2023-03-31T14:21:33;11.70;99.90
13598;DHT22;38563;54.258;12.574;2023-03-31T14:24:09;11.50;99.90
13598;DHT22;38563;54.258;12.574;2023-03-31T14:26:49;11.40;99.90
13598;DHT22;38563;54.258;12.574;2023-03-31T14:29:19;11.30;99.90
13598;DHT22;38563;54.258;12.574;2023-03-31T14:31:56;11.30;99.90
13598;DHT22;38563;54.258;12.574;2023-03-31T14:34:45;11.30;99.90
13598;DHT22;38563;54.258;12.574;2023-03-31T14:37:18;11.30;99.90
13598;DHT22;38563;54.258;12.574;2023-03-31T14:39:49;11.30;99.90
13598;DHT22;38563;54.258;12.574;2023-03-31T14:42:18;11.40;99.90
13598;DHT22;38563;54.258;12.574;2023-03-31T14:44:47;11.40;99.90
13598;DHT22;38563;54.258;12.574;2023-03-31T14:47:15;11.50;99.90
13598;DHT22;38563;54.258;12.574;2023-03-31T14:49:45;11.50;99.90
13598;DHT22;38563;54.258;12.574;2023-03-31T14:52:18;11.60;99.90
13598;DHT22;38563;54.258;12.574;2023-03-31T14:54:45;11.50;99.90
13598;DHT22;38563;54.258;12.574;2023-03-31T14:57:16;11.50;99.90
13598;DHT22;38563;54.258;12.574;2023-03-31T14:59:44;11.60;99.90
13598;DHT22;38563;54.258;12.574;2023-03-31T15:02:15;11.70;99.90
13598;DHT22;38563;54.258;12.574;2023-03-31T15:04:43;11.60;99.90
13598;DHT22;38563;54.258;12.574;2023-03-31T15:07:13;11.60;99.90
13598;DHT22;38563;54.258;12.574;2023-03-31T15:09:45;11.60;99.90
13598;DHT22;38563;54.258;12.574;2023-03-31T15:12:16;11.70;99.90
13598;DHT22;38563;54.258;12.574;2023-03-31T15:14:46;11.60;99.90
13598;DHT22;38563;54.258;12.574;2023-03-31T15:17:21;11.60;99.90
13598;DHT22;38563;54.258;12.574;2023-03-31T15:19:53;11.60;99.90
13598;DHT22;38563;54.258;12.574;2023-03-31T15:22:22;11.60;99.90
13598;DHT22;38563;54.258;12.574;2023-03-31T15:24:50;11.60;99.90
13598;DHT22;38563;54.258;12.574;2023-03-31T15:27:24;11.60;99.90
13598;DHT22;38563;54.258;12.574;2023-03-31T15:29:54;11.60;99.90
13598;DHT22;38563;54.258;12.574;2023-03-31T15:32:25;11.60;99.90
13598;DHT22;38563;54.258;12.574;2023-03-31T15:34:52;11.50;99.90
13598;DHT22;38563;54.258;12.574;2023-03-31T15:37:21;11.50;99.90
13598;DHT22;38563;54.258;12.574;2023-03-31T15:39:54;11.40;99.90
13598;DHT22;38563;54.258;12.574;2023-03-31T15:42:22;11.50;99.90
13598;DHT22;38563;54.258;12.574;2023-03-31T15:44:53;11.40;99.90
13598;DHT22;38563;54.258;12.574;2023-03-31T15:47:22;11.40;99.90
13598;DHT22;38563;54.258;12.574;2023-03-31T15:49:52;11.50;99.90
13598;DHT22;38563;54.258;12.574;2023-03-31T15:52:27;11.50;99.90
13598;DHT22;38563;54.258;12.574;2023-03-31T15:54:56;11.50;99.90
13598;DHT22;38563;54.258;12.574;2023-03-31T15:57:31;11.50;99.90
13598;DHT22;38563;54.258;12.574;2023-03-31T15:59:58;11.60;99.90